sensor_id;sensor_type;location;lat;lon;timestamp;temperature;humidity
70214;DHT22;60138;55.808;37.078;2023-03-20T00:01:56;-2.82;64.43
70214;DHT22;60138;55.808;37.078;2023-03-20T00:04:21;-2.83;64.42
70214;DHT22;60138;55.808;37.078;2023-03-20T00:06:47;-2.87;64.41
70214;DHT22;60138;55.808;37.078;2023-03-20T00:09:13;-2.89;64.43
70214;DHT22;60138;55.808;37.078;2023-03-20T00:11:46;-2.89;64.30
70214;DHT22;60138;55.808;37.078;2023-03-20T00:14:13;-2.93;64.12
70214;DHT22;60138;55.808;37.078;2023-03-20T00:16:45;-2.94;64.21
70214;DHT22;60138;55.808;37.078;2023-03-20T00:19:18;-2.95;64.36
70214;DHT22;60138;55.808;37.078;2023-03-20T00:21:45;-2.95;64.56
70214;DHT22;60138;55.808;37.078;2023-03-20T00:24:11;-2.98;64.69
70214;DHT22;60138;55.808;37.078;2023-03-20T00:26:37;-2.98;64.78
70214;DHT22;60138;55.808;37.078;2023-03-20T00:29:05;-3.00;64.80
70214;DHT22;60138;55.808;37.078;2023-03-20T00:31:35;-3.00;64.76
70214;DHT22;60138;55.808;37.078;2023-03-20T00:34:09;-3.02;64.89
70214;DHT22;60138;55.808;37.078;2023-03-20T00:36:36;-3.02;64.95
70214;DHT22;60138;55.808;37.078;2023-03-20T00:39:02;-3.03;64.98
70214;DHT22;60138;55.808;37.078;2023-03-20T00:41:40;-3.03;65.03
70214;DHT22;60138;55.808;37.078;2023-03-20T00:44:31;-3.00;64.92
70214;DHT22;60138;55.808;37.078;2023-03-20T00:47:12;-3.00;64.73
70214;DHT22;60138;55.808;37.078;2023-03-20T00:49:40;-3.01;64.59
70214;DHT22;60138;55.808;37.078;2023-03-20T00:52:08;-3.00;64.53
70214;DHT22;60138;55.808;37.078;2023-03-20T00:54:35;-2.98;64.53
70214;DHT22;60138;55.808;37.078;2023-03-20T00:57:05;-2.97;64.51
70214;DHT22;60138;55.808;37.078;2023-03-20T00:59:35;-3.00;64.24
70214;DHT22;60138;55.808;37.078;2023-03-20T01:02:01;-3.05;64.34
70214;DHT22;60138;55.808;37.078;2023-03-20T01:04:39;-3.04;64.29
70214;DHT22;60138;55.808;37.078;2023-03-20T01:07:08;-3.06;64.33
70214;DHT22;60138;55.808;37.078;2023-03-20T01:09:35;-3.07;64.09
70214;DHT22;60138;55.808;37.078;2023-03-20T01:12:01;-3.11;64.16
70214;DHT22;60138;55.808;37.078;2023-03-20T01:14:27;-3.10;64.35
70214;DHT22;60138;55.808;37.078;2023-03-20T01:16:53;-3.06;64.40
70214;DHT22;60138;55.808;37.078;2023-03-20T01:19:19;-3.06;64.64
70214;DHT22;60138;55.808;37.078;2023-03-20T01:21:44;-3.05;64.64
70214;DHT22;60138;55.808;37.078;2023-03-20T01:24:10;-3.04;64.53
70214;DHT22;60138;55.808;37.078;2023-03-20T01:26:39;-3.02;64.50
70214;DHT22;60138;55.808;37.078;2023-03-20T01:29:23;-3.01;64.53
70214;DHT22;60138;55.808;37.078;2023-03-20T01:31:50;-3.02;64.51
70214;DHT22;60138;55.808;37.078;2023-03-20T01:34:18;-3.02;64.54
70214;DHT22;60138;55.808;37.078;2023-03-20T01:36:55;-3.03;64.78
70214;DHT22;60138;55.808;37.078;2023-03-20T01:39:29;-3.04;64.66
70214;DHT22;60138;55.808;37.078;2023-03-20T01:41:56;-3.08;64.29
70214;DHT22;60138;55.808;37.078;2023-03-20T01:44:24;-3.08;64.34
70214;DHT22;60138;55.808;37.078;2023-03-20T01:46:55;-3.10;64.11
70214;DHT22;60138;55.808;37.078;2023-03-20T01:51:51;-3.09;64.48
70214;DHT22;60138;55.808;37.078;2023-03-20T01:54:26;-3.10;64.82
70214;DHT22;60138;55.808;37.078;2023-03-20T01:57:09;-3.10;64.91
70214;DHT22;60138;55.808;37.078;2023-03-20T02:00:08;-3.11;64.86
70214;DHT22;60138;55.808;37.078;2023-03-20T02:02:44;-3.10;64.80
70214;DHT22;60138;55.808;37.078;2023-03-20T02:05:18;-3.10;64.76
70214;DHT22;60138;55.808;37.078;2023-03-20T02:10:32;-3.10;64.45
70214;DHT22;60138;55.808;37.078;2023-03-20T02:13:11;-3.09;64.44
70214;DHT22;60138;55.808;37.078;2023-03-20T02:16:11;-3.04;64.56
70214;DHT22;60138;55.808;37.078;2023-03-20T02:18:51;-3.02;64.38
70214;DHT22;60138;55.808;37.078;2023-03-20T02:32:51;-2.83;64.62
70214;DHT22;60138;55.808;37.078;2023-03-20T02:35:42;-2.84;64.55
70214;DHT22;60138;55.808;37.078;2023-03-20T02:38:35;-2.88;64.50
70214;DHT22;60138;55.808;37.078;2023-03-20T02:41:20;-2.92;64.38
70214;DHT22;60138;55.808;37.078;2023-03-20T02:47:02;-3.05;64.46
70214;DHT22;60138;55.808;37.078;2023-03-20T02:49:54;-3.12;64.57
70214;DHT22;60138;55.808;37.078;2023-03-20T02:52:48;-3.17;64.66
70214;DHT22;60138;55.808;37.078;2023-03-20T02:55:38;-3.25;64.77
70214;DHT22;60138;55.808;37.078;2023-03-20T03:00:38;-3.35;64.98
70214;DHT22;60138;55.808;37.078;2023-03-20T03:03:10;-3.38;64.88
70214;DHT22;60138;55.808;37.078;2023-03-20T03:05:55;-3.42;64.98
70214;DHT22;60138;55.808;37.078;2023-03-20T03:08:25;-3.45;65.08
70214;DHT22;60138;55.808;37.078;2023-03-20T03:11:00;-3.51;65.04
70214;DHT22;60138;55.808;37.078;2023-03-20T03:13:30;-3.57;65.26
70214;DHT22;60138;55.808;37.078;2023-03-20T03:15:59;-3.58;65.28
70214;DHT22;60138;55.808;37.078;2023-03-20T03:18:26;-3.58;65.51
70214;DHT22;60138;55.808;37.078;2023-03-20T03:20:57;-3.56;65.56
70214;DHT22;60138;55.808;37.078;2023-03-20T03:23:29;-3.54;65.58
70214;DHT22;60138;55.808;37.078;2023-03-20T03:25:59;-3.54;65.76
70214;DHT22;60138;55.808;37.078;2023-03-20T03:28:35;-3.52;65.77
70214;DHT22;60138;55.808;37.078;2023-03-20T03:31:02;-3.50;65.72
70214;DHT22;60138;55.808;37.078;2023-03-20T03:33:30;-3.50;65.86
70214;DHT22;60138;55.808;37.078;2023-03-20T03:36:20;-3.52;65.89
70214;DHT22;60138;55.808;37.078;2023-03-20T03:41:32;-3.56;66.04
70214;DHT22;60138;55.808;37.078;2023-03-20T03:46:53;-3.57;65.96
70214;DHT22;60138;55.808;37.078;2023-03-20T03:49:31;-3.57;66.10
70214;DHT22;60138;55.808;37.078;2023-03-20T03:52:07;-3.57;66.14
70214;DHT22;60138;55.808;37.078;2023-03-20T03:54:43;-3.58;66.27
70214;DHT22;60138;55.808;37.078;2023-03-20T03:57:33;-3.57;66.48
70214;DHT22;60138;55.808;37.078;2023-03-20T04:00:04;-3.57;66.32
70214;DHT22;60138;55.808;37.078;2023-03-20T04:02:41;-3.61;65.93
70214;DHT22;60138;55.808;37.078;2023-03-20T04:05:08;-3.63;65.68
70214;DHT22;60138;55.808;37.078;2023-03-20T04:07:34;-3.64;65.83
70214;DHT22;60138;55.808;37.078;2023-03-20T04:10:00;-3.66;65.78
70214;DHT22;60138;55.808;37.078;2023-03-20T04:14:54;-3.58;66.00
70214;DHT22;60138;55.808;37.078;2023-03-20T04:17:22;-3.58;65.91
70214;DHT22;60138;55.808;37.078;2023-03-20T04:19:48;-3.60;65.82
70214;DHT22;60138;55.808;37.078;2023-03-20T04:22:13;-3.58;65.88
70214;DHT22;60138;55.808;37.078;2023-03-20T04:24:40;-3.58;66.04
70214;DHT22;60138;55.808;37.078;2023-03-20T04:27:06;-3.53;66.01
70214;DHT22;60138;55.808;37.078;2023-03-20T04:29:32;-3.47;65.98
70214;DHT22;60138;55.808;37.078;2023-03-20T04:32:14;-3.37;65.93
70214;DHT22;60138;55.808;37.078;2023-03-20T04:34:58;-3.28;65.85
70214;DHT22;60138;55.808;37.078;2023-03-20T04:37:42;-3.20;65.77
70214;DHT22;60138;55.808;37.078;2023-03-20T04:40:08;-3.17;65.74
70214;DHT22;60138;55.808;37.078;2023-03-20T04:42:35;-3.16;65.74
70214;DHT22;60138;55.808;37.078;2023-03-20T04:45:05;-3.10;65.78
70214;DHT22;60138;55.808;37.078;2023-03-20T04:47:31;-3.09;65.73
70214;DHT22;60138;55.808;37.078;2023-03-20T04:49:57;-3.05;65.95
70214;DHT22;60138;55.808;37.078;2023-03-20T04:52:23;-3.01;66.01
70214;DHT22;60138;55.808;37.078;2023-03-20T04:54:49;-3.00;66.08
70214;DHT22;60138;55.808;37.078;2023-03-20T04:57:16;-2.95;66.43
70214;DHT22;60138;55.808;37.078;2023-03-20T04:59:42;-2.93;66.35
70214;DHT22;60138;55.808;37.078;2023-03-20T05:02:08;-2.89;66.30
70214;DHT22;60138;55.808;37.078;2023-03-20T05:04:34;-2.84;66.13
70214;DHT22;60138;55.808;37.078;2023-03-20T05:06:59;-2.78;66.02
70214;DHT22;60138;55.808;37.078;2023-03-20T05:09:33;-2.72;65.99
70214;DHT22;60138;55.808;37.078;2023-03-20T05:12:01;-2.66;65.88
70214;DHT22;60138;55.808;37.078;2023-03-20T05:14:45;-2.59;65.87
70214;DHT22;60138;55.808;37.078;2023-03-20T05:17:43;-2.46;65.67
70214;DHT22;60138;55.808;37.078;2023-03-20T05:20:29;-2.35;65.37
70214;DHT22;60138;55.808;37.078;2023-03-20T05:23:04;-2.27;65.31
70214;DHT22;60138;55.808;37.078;2023-03-20T05:25:45;-2.17;64.96
70214;DHT22;60138;55.808;37.078;2023-03-20T05:28:29;-2.10;64.63
70214;DHT22;60138;55.808;37.078;2023-03-20T05:31:33;-2.01;64.37
70214;DHT22;60138;55.808;37.078;2023-03-20T05:34:13;-1.95;64.13
70214;DHT22;60138;55.808;37.078;2023-03-20T05:37:00;-1.89;63.76
70214;DHT22;60138;55.808;37.078;2023-03-20T05:39:46;-1.82;63.67
70214;DHT22;60138;55.808;37.078;2023-03-20T05:42:38;-1.76;63.42
70214;DHT22;60138;55.808;37.078;2023-03-20T05:45:27;-1.75;63.02
70214;DHT22;60138;55.808;37.078;2023-03-20T05:47:53;-1.72;63.00
70214;DHT22;60138;55.808;37.078;2023-03-20T05:50:45;-1.69;62.81
70214;DHT22;60138;55.808;37.078;2023-03-20T05:53:15;-1.67;62.47
70214;DHT22;60138;55.808;37.078;2023-03-20T05:56:10;-1.59;62.59
70214;DHT22;60138;55.808;37.078;2023-03-20T05:58:56;-1.48;61.88
70214;DHT22;60138;55.808;37.078;2023-03-20T06:01:37;-1.32;61.14
70214;DHT22;60138;55.808;37.078;2023-03-20T06:04:22;-1.14;60.96
70214;DHT22;60138;55.808;37.078;2023-03-20T06:07:11;-0.96;60.28
70214;DHT22;60138;55.808;37.078;2023-03-20T06:09:40;-0.77;60.31
70214;DHT22;60138;55.808;37.078;2023-03-20T06:12:10;-0.61;59.96
70214;DHT22;60138;55.808;37.078;2023-03-20T06:14:36;-0.47;59.20
70214;DHT22;60138;55.808;37.078;2023-03-20T06:17:06;-0.39;59.08
70214;DHT22;60138;55.808;37.078;2023-03-20T06:19:32;-0.32;59.07
70214;DHT22;60138;55.808;37.078;2023-03-20T06:21:57;-0.23;59.28
70214;DHT22;60138;55.808;37.078;2023-03-20T06:24:23;-0.13;58.96
70214;DHT22;60138;55.808;37.078;2023-03-20T06:26:49;-0.07;58.87
70214;DHT22;60138;55.808;37.078;2023-03-20T06:29:15;0.01;59.12
70214;DHT22;60138;55.808;37.078;2023-03-20T06:31:41;0.09;58.96
70214;DHT22;60138;55.808;37.078;2023-03-20T06:34:12;0.17;58.99
70214;DHT22;60138;55.808;37.078;2023-03-20T06:36:42;0.29;59.06
70214;DHT22;60138;55.808;37.078;2023-03-20T06:39:14;0.36;58.77
70214;DHT22;60138;55.808;37.078;2023-03-20T06:41:40;0.39;58.58
70214;DHT22;60138;55.808;37.078;2023-03-20T06:44:08;0.47;58.58
70214;DHT22;60138;55.808;37.078;2023-03-20T06:47:04;0.57;58.23
70214;DHT22;60138;55.808;37.078;2023-03-20T06:49:30;0.63;58.15
70214;DHT22;60138;55.808;37.078;2023-03-20T06:51:56;0.65;57.88
70214;DHT22;60138;55.808;37.078;2023-03-20T06:54:24;0.68;57.14
70214;DHT22;60138;55.808;37.078;2023-03-20T06:56:51;0.72;57.58
70214;DHT22;60138;55.808;37.078;2023-03-20T06:59:17;0.76;57.73
70214;DHT22;60138;55.808;37.078;2023-03-20T07:01:43;0.81;57.55
70214;DHT22;60138;55.808;37.078;2023-03-20T07:04:09;0.84;57.25
70214;DHT22;60138;55.808;37.078;2023-03-20T07:06:43;0.87;57.00
70214;DHT22;60138;55.808;37.078;2023-03-20T07:09:09;0.93;57.34
70214;DHT22;60138;55.808;37.078;2023-03-20T07:11:35;0.97;56.24
70214;DHT22;60138;55.808;37.078;2023-03-20T07:14:01;1.04;56.03
70214;DHT22;60138;55.808;37.078;2023-03-20T07:16:38;1.11;56.49
70214;DHT22;60138;55.808;37.078;2023-03-20T07:19:04;1.21;55.20
70214;DHT22;60138;55.808;37.078;2023-03-20T07:21:33;1.32;55.47
70214;DHT22;60138;55.808;37.078;2023-03-20T07:23:59;1.42;55.78
70214;DHT22;60138;55.808;37.078;2023-03-20T07:26:25;1.57;55.03
70214;DHT22;60138;55.808;37.078;2023-03-20T07:28:51;1.70;55.75
70214;DHT22;60138;55.808;37.078;2023-03-20T07:31:25;1.85;55.10
70214;DHT22;60138;55.808;37.078;2023-03-20T07:34:10;1.97;55.18
70214;DHT22;60138;55.808;37.078;2023-03-20T07:36:39;2.07;54.86
70214;DHT22;60138;55.808;37.078;2023-03-20T07:39:05;2.15;54.27
70214;DHT22;60138;55.808;37.078;2023-03-20T07:41:33;2.22;54.05
70214;DHT22;60138;55.808;37.078;2023-03-20T07:44:03;2.29;55.04
70214;DHT22;60138;55.808;37.078;2023-03-20T07:46:42;2.36;53.41
70214;DHT22;60138;55.808;37.078;2023-03-20T07:49:08;2.38;52.21
70214;DHT22;60138;55.808;37.078;2023-03-20T07:51:34;2.43;53.51
70214;DHT22;60138;55.808;37.078;2023-03-20T07:54:01;2.49;52.45
70214;DHT22;60138;55.808;37.078;2023-03-20T07:56:27;2.52;53.88
70214;DHT22;60138;55.808;37.078;2023-03-20T07:58:53;2.53;53.68
70214;DHT22;60138;55.808;37.078;2023-03-20T08:01:18;2.54;53.59
70214;DHT22;60138;55.808;37.078;2023-03-20T08:03:44;2.56;52.69
70214;DHT22;60138;55.808;37.078;2023-03-20T08:06:10;2.57;52.59
70214;DHT22;60138;55.808;37.078;2023-03-20T08:08:35;2.62;53.80
70214;DHT22;60138;55.808;37.078;2023-03-20T08:11:01;2.61;51.87
70214;DHT22;60138;55.808;37.078;2023-03-20T08:13:27;2.57;50.13
70214;DHT22;60138;55.808;37.078;2023-03-20T08:15:53;2.52;52.11
70214;DHT22;60138;55.808;37.078;2023-03-20T08:18:18;2.53;52.01
70214;DHT22;60138;55.808;37.078;2023-03-20T08:20:44;2.51;52.27
70214;DHT22;60138;55.808;37.078;2023-03-20T08:23:10;2.47;52.33
70214;DHT22;60138;55.808;37.078;2023-03-20T08:25:36;2.45;51.60
70214;DHT22;60138;55.808;37.078;2023-03-20T08:28:02;2.44;51.83
70214;DHT22;60138;55.808;37.078;2023-03-20T08:30:28;2.45;52.07
70214;DHT22;60138;55.808;37.078;2023-03-20T08:32:54;2.44;51.08
70214;DHT22;60138;55.808;37.078;2023-03-20T08:35:20;2.46;51.66
70214;DHT22;60138;55.808;37.078;2023-03-20T08:37:46;2.50;51.47
70214;DHT22;60138;55.808;37.078;2023-03-20T08:40:11;2.57;51.84
70214;DHT22;60138;55.808;37.078;2023-03-20T08:42:38;2.70;51.44
70214;DHT22;60138;55.808;37.078;2023-03-20T08:45:05;2.80;50.99
70214;DHT22;60138;55.808;37.078;2023-03-20T08:47:31;2.87;50.70
70214;DHT22;60138;55.808;37.078;2023-03-20T08:49:57;2.91;50.44
70214;DHT22;60138;55.808;37.078;2023-03-20T08:52:22;2.93;50.34
70214;DHT22;60138;55.808;37.078;2023-03-20T08:54:48;2.96;50.79
70214;DHT22;60138;55.808;37.078;2023-03-20T08:57:14;3.00;45.22
70214;DHT22;60138;55.808;37.078;2023-03-20T08:59:40;3.14;47.61
70214;DHT22;60138;55.808;37.078;2023-03-20T09:02:08;3.24;50.26
70214;DHT22;60138;55.808;37.078;2023-03-20T09:04:33;3.28;47.25
70214;DHT22;60138;55.808;37.078;2023-03-20T09:07:00;3.32;49.70
70214;DHT22;60138;55.808;37.078;2023-03-20T09:09:26;3.42;49.20
70214;DHT22;60138;55.808;37.078;2023-03-20T09:11:54;3.50;48.95
70214;DHT22;60138;55.808;37.078;2023-03-20T09:14:23;3.57;50.72
70214;DHT22;60138;55.808;37.078;2023-03-20T09:16:50;3.61;48.64
70214;DHT22;60138;55.808;37.078;2023-03-20T09:19:17;3.63;46.54
70214;DHT22;60138;55.808;37.078;2023-03-20T09:21:45;3.71;48.21
70214;DHT22;60138;55.808;37.078;2023-03-20T09:24:11;3.76;46.75
70214;DHT22;60138;55.808;37.078;2023-03-20T09:26:37;3.84;47.61
70214;DHT22;60138;55.808;37.078;2023-03-20T09:29:04;3.87;48.27
70214;DHT22;60138;55.808;37.078;2023-03-20T09:31:33;3.98;47.38
70214;DHT22;60138;55.808;37.078;2023-03-20T09:33:59;4.03;47.73
70214;DHT22;60138;55.808;37.078;2023-03-20T09:36:24;4.14;47.86
70214;DHT22;60138;55.808;37.078;2023-03-20T09:38:50;4.18;47.49
70214;DHT22;60138;55.808;37.078;2023-03-20T09:41:19;4.22;48.68
70214;DHT22;60138;55.808;37.078;2023-03-20T09:52:00;4.31;47.40
70214;DHT22;60138;55.808;37.078;2023-03-20T09:54:38;4.35;47.15
70214;DHT22;60138;55.808;37.078;2023-03-20T09:57:16;4.39;46.60
70214;DHT22;60138;55.808;37.078;2023-03-20T09:59:46;4.30;45.80
70214;DHT22;60138;55.808;37.078;2023-03-20T10:02:18;4.34;45.86
70214;DHT22;60138;55.808;37.078;2023-03-20T10:04:50;4.37;45.51
70214;DHT22;60138;55.808;37.078;2023-03-20T10:07:18;4.34;44.72
70214;DHT22;60138;55.808;37.078;2023-03-20T10:09:45;4.38;43.45
70214;DHT22;60138;55.808;37.078;2023-03-20T10:12:48;4.48;43.64
70214;DHT22;60138;55.808;37.078;2023-03-20T10:17:52;4.57;45.46
70214;DHT22;60138;55.808;37.078;2023-03-20T10:20:36;4.62;43.61
70214;DHT22;60138;55.808;37.078;2023-03-20T10:23:19;4.71;46.57
70214;DHT22;60138;55.808;37.078;2023-03-20T10:25:53;4.80;46.03
70214;DHT22;60138;55.808;37.078;2023-03-20T10:28:31;4.82;46.29
70214;DHT22;60138;55.808;37.078;2023-03-20T10:39:02;5.04;40.62
70214;DHT22;60138;55.808;37.078;2023-03-20T10:41:38;5.13;46.93
70214;DHT22;60138;55.808;37.078;2023-03-20T10:44:09;5.17;42.87
70214;DHT22;60138;55.808;37.078;2023-03-20T10:46:44;5.22;37.27
70214;DHT22;60138;55.808;37.078;2023-03-20T10:49:36;5.24;40.88
70214;DHT22;60138;55.808;37.078;2023-03-20T10:52:16;5.28;42.85
70214;DHT22;60138;55.808;37.078;2023-03-20T10:54:55;5.34;41.34
70214;DHT22;60138;55.808;37.078;2023-03-20T10:57:23;5.42;40.59
70214;DHT22;60138;55.808;37.078;2023-03-20T10:59:51;5.48;42.32
70214;DHT22;60138;55.808;37.078;2023-03-20T11:02:19;5.46;43.22
70214;DHT22;60138;55.808;37.078;2023-03-20T11:04:45;5.49;32.64
70214;DHT22;60138;55.808;37.078;2023-03-20T11:07:13;5.55;42.71
70214;DHT22;60138;55.808;37.078;2023-03-20T11:09:40;5.59;40.01
70214;DHT22;60138;55.808;37.078;2023-03-20T11:12:14;5.64;40.81
70214;DHT22;60138;55.808;37.078;2023-03-20T11:14:41;5.68;42.16
70214;DHT22;60138;55.808;37.078;2023-03-20T11:17:08;5.70;43.45
70214;DHT22;60138;55.808;37.078;2023-03-20T11:19:38;5.76;41.26
70214;DHT22;60138;55.808;37.078;2023-03-20T11:22:22;5.77;35.83
70214;DHT22;60138;55.808;37.078;2023-03-20T11:24:59;5.82;37.24
70214;DHT22;60138;55.808;37.078;2023-03-20T11:27:29;5.87;41.83
70214;DHT22;60138;55.808;37.078;2023-03-20T11:29:59;5.92;41.16
70214;DHT22;60138;55.808;37.078;2023-03-20T11:32:30;5.94;45.49
70214;DHT22;60138;55.808;37.078;2023-03-20T11:35:08;5.97;44.55
70214;DHT22;60138;55.808;37.078;2023-03-20T11:37:35;5.98;39.78
70214;DHT22;60138;55.808;37.078;2023-03-20T11:42:42;6.06;41.15
70214;DHT22;60138;55.808;37.078;2023-03-20T11:45:16;6.12;44.32
70214;DHT22;60138;55.808;37.078;2023-03-20T11:47:50;6.19;41.95
70214;DHT22;60138;55.808;37.078;2023-03-20T11:50:41;7.26;38.61
70214;DHT22;60138;55.808;37.078;2023-03-20T11:56:12;9.70;40.81
70214;DHT22;60138;55.808;37.078;2023-03-20T11:59:12;10.66;38.58
70214;DHT22;60138;55.808;37.078;2023-03-20T12:01:42;11.55;35.60
70214;DHT22;60138;55.808;37.078;2023-03-20T12:04:15;11.99;34.25
70214;DHT22;60138;55.808;37.078;2023-03-20T12:17:24;12.96;39.14
70214;DHT22;60138;55.808;37.078;2023-03-20T12:19:55;13.26;38.08
70214;DHT22;60138;55.808;37.078;2023-03-20T12:22:25;13.68;38.01
70214;DHT22;60138;55.808;37.078;2023-03-20T12:27:34;14.62;33.27
70214;DHT22;60138;55.808;37.078;2023-03-20T12:30:14;14.80;33.70
70214;DHT22;60138;55.808;37.078;2023-03-20T12:33:06;14.91;35.42
70214;DHT22;60138;55.808;37.078;2023-03-20T12:35:39;14.75;20.99
70214;DHT22;60138;55.808;37.078;2023-03-20T12:38:24;14.41;27.65
70214;DHT22;60138;55.808;37.078;2023-03-20T12:40:55;14.27;34.18
70214;DHT22;60138;55.808;37.078;2023-03-20T12:43:25;14.27;36.70
70214;DHT22;60138;55.808;37.078;2023-03-20T12:46:32;13.98;33.12
70214;DHT22;60138;55.808;37.078;2023-03-20T12:49:15;13.82;36.53
70214;DHT22;60138;55.808;37.078;2023-03-20T12:52:11;13.62;37.79
70214;DHT22;60138;55.808;37.078;2023-03-20T13:06:09;14.05;33.05
70214;DHT22;60138;55.808;37.078;2023-03-20T13:08:54;13.90;31.47
70214;DHT22;60138;55.808;37.078;2023-03-20T13:11:30;13.67;37.12
70214;DHT22;60138;55.808;37.078;2023-03-20T13:21:38;13.00;38.98
70214;DHT22;60138;55.808;37.078;2023-03-20T13:24:21;12.89;38.26
70214;DHT22;60138;55.808;37.078;2023-03-20T13:33:04;12.43;35.94
70214;DHT22;60138;55.808;37.078;2023-03-20T13:38:22;12.05;36.59
70214;DHT22;60138;55.808;37.078;2023-03-20T13:40:57;12.06;38.30
70214;DHT22;60138;55.808;37.078;2023-03-20T13:43:44;12.12;38.20
70214;DHT22;60138;55.808;37.078;2023-03-20T13:46:18;12.04;37.53
70214;DHT22;60138;55.808;37.078;2023-03-20T13:48:47;11.97;37.01
70214;DHT22;60138;55.808;37.078;2023-03-20T13:51:28;11.79;38.08
70214;DHT22;60138;55.808;37.078;2023-03-20T13:59:48;11.20;37.87
70214;DHT22;60138;55.808;37.078;2023-03-20T14:04:33;10.99;39.28
70214;DHT22;60138;55.808;37.078;2023-03-20T14:06:59;10.83;38.97
70214;DHT22;60138;55.808;37.078;2023-03-20T14:09:36;10.69;39.04
70214;DHT22;60138;55.808;37.078;2023-03-20T14:12:07;10.62;40.79
70214;DHT22;60138;55.808;37.078;2023-03-20T14:14:44;10.51;40.40
70214;DHT22;60138;55.808;37.078;2023-03-20T14:17:30;10.43;36.03
70214;DHT22;60138;55.808;37.078;2023-03-20T14:19:57;10.34;40.03
70214;DHT22;60138;55.808;37.078;2023-03-20T14:22:35;10.21;41.57
70214;DHT22;60138;55.808;37.078;2023-03-20T14:25:05;10.11;41.04
70214;DHT22;60138;55.808;37.078;2023-03-20T14:27:59;10.07;39.98
70214;DHT22;60138;55.808;37.078;2023-03-20T14:30:44;10.05;40.55
70214;DHT22;60138;55.808;37.078;2023-03-20T14:35:45;9.94;39.63
70214;DHT22;60138;55.808;37.078;2023-03-20T14:48:53;9.31;41.05
70214;DHT22;60138;55.808;37.078;2023-03-20T14:54:27;9.14;40.84
70214;DHT22;60138;55.808;37.078;2023-03-20T14:56:53;9.04;41.45
70214;DHT22;60138;55.808;37.078;2023-03-20T14:59:21;8.96;41.32
70214;DHT22;60138;55.808;37.078;2023-03-20T15:01:57;8.90;43.03
70214;DHT22;60138;55.808;37.078;2023-03-20T15:07:00;8.72;43.30
70214;DHT22;60138;55.808;37.078;2023-03-20T15:09:30;8.61;44.61
70214;DHT22;60138;55.808;37.078;2023-03-20T15:12:00;8.49;44.67
70214;DHT22;60138;55.808;37.078;2023-03-20T15:14:36;8.36;45.16
70214;DHT22;60138;55.808;37.078;2023-03-20T15:17:13;8.29;44.32
70214;DHT22;60138;55.808;37.078;2023-03-20T15:19:41;8.22;45.45
70214;DHT22;60138;55.808;37.078;2023-03-20T15:22:18;8.14;44.78
70214;DHT22;60138;55.808;37.078;2023-03-20T15:24:54;8.06;45.12
70214;DHT22;60138;55.808;37.078;2023-03-20T15:27:24;7.94;45.10
70214;DHT22;60138;55.808;37.078;2023-03-20T15:29:54;7.84;44.32
70214;DHT22;60138;55.808;37.078;2023-03-20T15:32:24;7.73;44.04
70214;DHT22;60138;55.808;37.078;2023-03-20T15:34:50;7.60;44.49
70214;DHT22;60138;55.808;37.078;2023-03-20T15:37:20;7.47;44.45
70214;DHT22;60138;55.808;37.078;2023-03-20T15:39:52;7.35;44.14
70214;DHT22;60138;55.808;37.078;2023-03-20T15:42:20;7.24;44.54
70214;DHT22;60138;55.808;37.078;2023-03-20T15:44:48;7.12;44.49
70214;DHT22;60138;55.808;37.078;2023-03-20T15:47:21;6.97;44.88
70214;DHT22;60138;55.808;37.078;2023-03-20T15:49:57;6.86;44.99
70214;DHT22;60138;55.808;37.078;2023-03-20T15:52:35;6.76;44.22
70214;DHT22;60138;55.808;37.078;2023-03-20T15:55:16;6.70;44.34
70214;DHT22;60138;55.808;37.078;2023-03-20T15:57:43;6.66;44.45
70214;DHT22;60138;55.808;37.078;2023-03-20T16:00:16;6.67;45.05
70214;DHT22;60138;55.808;37.078;2023-03-20T16:02:46;6.66;44.73
70214;DHT22;60138;55.808;37.078;2023-03-20T16:05:13;6.65;44.83
70214;DHT22;60138;55.808;37.078;2023-03-20T16:07:40;6.64;45.33
70214;DHT22;60138;55.808;37.078;2023-03-20T16:10:18;6.63;45.16
70214;DHT22;60138;55.808;37.078;2023-03-20T16:12:48;6.61;44.99
70214;DHT22;60138;55.808;37.078;2023-03-20T16:15:16;6.63;44.82
70214;DHT22;60138;55.808;37.078;2023-03-20T16:17:43;6.63;45.28
70214;DHT22;60138;55.808;37.078;2023-03-20T16:20:16;6.61;45.23
70214;DHT22;60138;55.808;37.078;2023-03-20T16:22:43;6.58;44.88
70214;DHT22;60138;55.808;37.078;2023-03-20T16:25:14;6.54;45.03
70214;DHT22;60138;55.808;37.078;2023-03-20T16:27:44;6.52;45.17
70214;DHT22;60138;55.808;37.078;2023-03-20T16:30:21;6.48;45.18
70214;DHT22;60138;55.808;37.078;2023-03-20T16:32:53;6.46;45.55
70214;DHT22;60138;55.808;37.078;2023-03-20T16:35:46;6.46;46.75
70214;DHT22;60138;55.808;37.078;2023-03-20T16:38:24;6.48;47.63
70214;DHT22;60138;55.808;37.078;2023-03-20T16:40:55;6.46;47.51
70214;DHT22;60138;55.808;37.078;2023-03-20T16:43:26;6.46;46.01
70214;DHT22;60138;55.808;37.078;2023-03-20T16:45:56;6.48;46.39
70214;DHT22;60138;55.808;37.078;2023-03-20T16:50:54;6.49;46.35
70214;DHT22;60138;55.808;37.078;2023-03-20T16:53:21;6.49;46.14
70214;DHT22;60138;55.808;37.078;2023-03-20T16:55:49;6.46;46.29
70214;DHT22;60138;55.808;37.078;2023-03-20T16:58:19;6.44;46.19
70214;DHT22;60138;55.808;37.078;2023-03-20T17:00:50;6.42;46.51
70214;DHT22;60138;55.808;37.078;2023-03-20T17:03:17;6.38;46.50
70214;DHT22;60138;55.808;37.078;2023-03-20T17:05:58;6.35;46.51
70214;DHT22;60138;55.808;37.078;2023-03-20T17:08:41;6.34;47.15
70214;DHT22;60138;55.808;37.078;2023-03-20T17:11:34;6.31;47.46
70214;DHT22;60138;55.808;37.078;2023-03-20T17:14:00;6.28;48.15
70214;DHT22;60138;55.808;37.078;2023-03-20T17:16:26;6.22;48.89
70214;DHT22;60138;55.808;37.078;2023-03-20T17:19:06;6.19;49.15
70214;DHT22;60138;55.808;37.078;2023-03-20T17:21:43;6.11;48.48
70214;DHT22;60138;55.808;37.078;2023-03-20T17:24:09;6.08;48.53
70214;DHT22;60138;55.808;37.078;2023-03-20T17:26:49;6.06;48.40
70214;DHT22;60138;55.808;37.078;2023-03-20T17:29:27;6.02;48.46
70214;DHT22;60138;55.808;37.078;2023-03-20T17:31:55;5.99;48.34
70214;DHT22;60138;55.808;37.078;2023-03-20T17:34:24;5.97;48.68
70214;DHT22;60138;55.808;37.078;2023-03-20T17:36:51;5.92;48.69
70214;DHT22;60138;55.808;37.078;2023-03-20T17:39:19;5.87;48.84
70214;DHT22;60138;55.808;37.078;2023-03-20T17:41:46;5.83;49.00
70214;DHT22;60138;55.808;37.078;2023-03-20T17:44:13;5.79;48.78
70214;DHT22;60138;55.808;37.078;2023-03-20T17:46:39;5.74;49.26
70214;DHT22;60138;55.808;37.078;2023-03-20T17:49:13;5.69;49.73
70214;DHT22;60138;55.808;37.078;2023-03-20T17:51:42;5.64;49.85
70214;DHT22;60138;55.808;37.078;2023-03-20T17:54:14;5.56;50.11
70214;DHT22;60138;55.808;37.078;2023-03-20T17:56:40;5.52;50.23
70214;DHT22;60138;55.808;37.078;2023-03-20T17:59:05;5.47;50.41
70214;DHT22;60138;55.808;37.078;2023-03-20T18:01:32;5.42;50.49
70214;DHT22;60138;55.808;37.078;2023-03-20T18:03:58;5.37;50.75